sensor_id;sensor_type;location;lat;lon;timestamp;temperature;humidity
71837;DHT22;59686;51.716;7.016;2022-12-11T00:01:10;5.40;77.40
71837;DHT22;59686;51.716;7.016;2022-12-11T00:03:43;5.50;77.50
71837;DHT22;59686;51.716;7.016;2022-12-11T00:06:11;5.50;77.20
71837;DHT22;59686;51.716;7.016;2022-12-11T00:08:37;5.50;77.20
71837;DHT22;59686;51.716;7.016;2022-12-11T00:11:03;5.50;77.20
71837;DHT22;59686;51.716;7.016;2022-12-11T00:13:29;5.50;77.40
71837;DHT22;59686;51.716;7.016;2022-12-11T00:15:57;5.50;77.30
71837;DHT22;59686;51.716;7.016;2022-12-11T00:18:23;5.50;77.30
71837;DHT22;59686;51.716;7.016;2022-12-11T00:20:48;5.50;77.30
71837;DHT22;59686;51.716;7.016;2022-12-11T00:23:14;5.50;77.20
71837;DHT22;59686;51.716;7.016;2022-12-11T00:25:41;5.50;77.20
71837;DHT22;59686;51.716;7.016;2022-12-11T00:28:08;5.50;77.10
71837;DHT22;59686;51.716;7.016;2022-12-11T00:30:38;5.50;77.20
71837;DHT22;59686;51.716;7.016;2022-12-11T00:33:04;5.50;77.20
71837;DHT22;59686;51.716;7.016;2022-12-11T00:35:30;5.60;77.40
71837;DHT22;59686;51.716;7.016;2022-12-11T00:37:55;5.50;77.10
71837;DHT22;59686;51.716;7.016;2022-12-11T00:40:21;5.50;77.20
71837;DHT22;59686;51.716;7.016;2022-12-11T00:42:47;5.60;77.30
71837;DHT22;59686;51.716;7.016;2022-12-11T00:45:18;5.50;77.20
71837;DHT22;59686;51.716;7.016;2022-12-11T00:47:44;5.60;77.40
71837;DHT22;59686;51.716;7.016;2022-12-11T00:50:10;5.50;77.30
71837;DHT22;59686;51.716;7.016;2022-12-11T00:52:36;5.50;77.20
71837;DHT22;59686;51.716;7.016;2022-12-11T00:55:03;5.60;77.30
71837;DHT22;59686;51.716;7.016;2022-12-11T00:57:29;5.50;77.30
71837;DHT22;59686;51.716;7.016;2022-12-11T00:59:54;5.50;77.30
71837;DHT22;59686;51.716;7.016;2022-12-11T01:02:50;5.50;77.20
71837;DHT22;59686;51.716;7.016;2022-12-11T01:05:16;5.50;77.20
71837;DHT22;59686;51.716;7.016;2022-12-11T01:07:41;5.50;77.30
71837;DHT22;59686;51.716;7.016;2022-12-11T01:10:09;5.50;77.30
71837;DHT22;59686;51.716;7.016;2022-12-11T01:15:20;5.60;77.40
71837;DHT22;59686;51.716;7.016;2022-12-11T01:17:50;5.50;77.40
71837;DHT22;59686;51.716;7.016;2022-12-11T01:20:18;5.70;77.60
71837;DHT22;59686;51.716;7.016;2022-12-11T01:22:47;5.50;77.50
71837;DHT22;59686;51.716;7.016;2022-12-11T01:25:13;5.50;77.50
71837;DHT22;59686;51.716;7.016;2022-12-11T01:27:43;5.50;77.60
71837;DHT22;59686;51.716;7.016;2022-12-11T01:30:10;5.50;77.60
71837;DHT22;59686;51.716;7.016;2022-12-11T01:32:35;5.50;77.60
71837;DHT22;59686;51.716;7.016;2022-12-11T01:35:15;5.50;77.50
71837;DHT22;59686;51.716;7.016;2022-12-11T01:37:41;5.50;77.60
71837;DHT22;59686;51.716;7.016;2022-12-11T01:40:08;5.50;77.70
71837;DHT22;59686;51.716;7.016;2022-12-11T01:42:34;5.50;77.70
71837;DHT22;59686;51.716;7.016;2022-12-11T01:47:38;5.50;77.60
71837;DHT22;59686;51.716;7.016;2022-12-11T01:50:04;5.40;77.60
71837;DHT22;59686;51.716;7.016;2022-12-11T01:52:30;5.50;77.60
71837;DHT22;59686;51.716;7.016;2022-12-11T01:54:55;5.50;77.60
71837;DHT22;59686;51.716;7.016;2022-12-11T01:57:21;5.50;77.60
71837;DHT22;59686;51.716;7.016;2022-12-11T01:59:47;5.50;77.60
71837;DHT22;59686;51.716;7.016;2022-12-11T02:02:28;5.50;77.70
71837;DHT22;59686;51.716;7.016;2022-12-11T02:05:01;5.50;77.70
71837;DHT22;59686;51.716;7.016;2022-12-11T02:07:29;5.50;77.60
71837;DHT22;59686;51.716;7.016;2022-12-11T02:09:56;5.50;77.60
71837;DHT22;59686;51.716;7.016;2022-12-11T02:12:36;5.50;77.60
71837;DHT22;59686;51.716;7.016;2022-12-11T02:15:30;5.50;77.60
71837;DHT22;59686;51.716;7.016;2022-12-11T02:20:33;5.50;78.40
71837;DHT22;59686;51.716;7.016;2022-12-11T02:28:42;5.50;77.80
71837;DHT22;59686;51.716;7.016;2022-12-11T02:33:51;5.50;77.80
71837;DHT22;59686;51.716;7.016;2022-12-11T02:36:23;5.50;77.80
71837;DHT22;59686;51.716;7.016;2022-12-11T02:38:52;5.50;77.90
71837;DHT22;59686;51.716;7.016;2022-12-11T02:41:20;5.60;77.90
71837;DHT22;59686;51.716;7.016;2022-12-11T02:43:48;5.50;77.90
71837;DHT22;59686;51.716;7.016;2022-12-11T02:46:16;5.50;78.00
71837;DHT22;59686;51.716;7.016;2022-12-11T02:48:43;5.40;77.80
71837;DHT22;59686;51.716;7.016;2022-12-11T02:51:10;5.50;78.60
71837;DHT22;59686;51.716;7.016;2022-12-11T02:53:39;5.50;77.90
71837;DHT22;59686;51.716;7.016;2022-12-11T02:56:21;5.50;78.00
71837;DHT22;59686;51.716;7.016;2022-12-11T02:59:03;5.50;78.00
71837;DHT22;59686;51.716;7.016;2022-12-11T03:01:30;5.50;77.90
71837;DHT22;59686;51.716;7.016;2022-12-11T03:03:57;5.50;78.00
71837;DHT22;59686;51.716;7.016;2022-12-11T03:06:33;5.50;78.00
71837;DHT22;59686;51.716;7.016;2022-12-11T03:09:01;5.50;78.00
71837;DHT22;59686;51.716;7.016;2022-12-11T03:11:27;5.50;78.00
71837;DHT22;59686;51.716;7.016;2022-12-11T03:13:53;5.50;78.10
71837;DHT22;59686;51.716;7.016;2022-12-11T03:21:53;5.50;78.00
71837;DHT22;59686;51.716;7.016;2022-12-11T03:26:54;5.60;78.10
71837;DHT22;59686;51.716;7.016;2022-12-11T03:30:09;5.60;78.10
71837;DHT22;59686;51.716;7.016;2022-12-11T03:32:17;5.50;78.00
71837;DHT22;59686;51.716;7.016;2022-12-11T03:37:24;5.60;78.20
71837;DHT22;59686;51.716;7.016;2022-12-11T03:39:58;5.60;78.10
71837;DHT22;59686;51.716;7.016;2022-12-11T03:42:28;5.60;78.20
71837;DHT22;59686;51.716;7.016;2022-12-11T03:44:56;5.50;78.10
71837;DHT22;59686;51.716;7.016;2022-12-11T03:47:24;5.60;78.20
71837;DHT22;59686;51.716;7.016;2022-12-11T03:49:55;5.50;78.10
71837;DHT22;59686;51.716;7.016;2022-12-11T03:52:25;5.50;78.10
71837;DHT22;59686;51.716;7.016;2022-12-11T03:54:52;5.50;78.80
71837;DHT22;59686;51.716;7.016;2022-12-11T03:57:22;5.50;78.10
71837;DHT22;59686;51.716;7.016;2022-12-11T03:59:50;5.50;78.10
71837;DHT22;59686;51.716;7.016;2022-12-11T04:02:16;5.50;78.20
71837;DHT22;59686;51.716;7.016;2022-12-11T04:04:42;5.50;78.10
71837;DHT22;59686;51.716;7.016;2022-12-11T04:07:08;5.50;78.10
71837;DHT22;59686;51.716;7.016;2022-12-11T04:09:34;5.50;78.20
71837;DHT22;59686;51.716;7.016;2022-12-11T04:12:00;5.50;78.20
71837;DHT22;59686;51.716;7.016;2022-12-11T04:14:26;5.60;78.20
71837;DHT22;59686;51.716;7.016;2022-12-11T04:17:12;5.60;78.20
71837;DHT22;59686;51.716;7.016;2022-12-11T04:20:04;5.60;78.90
71837;DHT22;59686;51.716;7.016;2022-12-11T04:22:48;5.60;78.20
71837;DHT22;59686;51.716;7.016;2022-12-11T04:25:34;5.50;78.10
71837;DHT22;59686;51.716;7.016;2022-12-11T04:28:00;5.50;78.20
71837;DHT22;59686;51.716;7.016;2022-12-11T04:30:26;5.60;78.20
71837;DHT22;59686;51.716;7.016;2022-12-11T04:32:53;5.50;78.20
71837;DHT22;59686;51.716;7.016;2022-12-11T04:35:19;5.50;78.20
71837;DHT22;59686;51.716;7.016;2022-12-11T04:37:51;5.50;78.30
71837;DHT22;59686;51.716;7.016;2022-12-11T04:40:20;5.60;78.30
71837;DHT22;59686;51.716;7.016;2022-12-11T04:42:46;5.60;78.30
71837;DHT22;59686;51.716;7.016;2022-12-11T04:45:12;5.60;78.20
71837;DHT22;59686;51.716;7.016;2022-12-11T04:47:39;5.60;78.20
71837;DHT22;59686;51.716;7.016;2022-12-11T04:50:06;5.60;78.20
71837;DHT22;59686;51.716;7.016;2022-12-11T04:52:32;5.60;78.20
71837;DHT22;59686;51.716;7.016;2022-12-11T04:54:58;5.50;78.30
71837;DHT22;59686;51.716;7.016;2022-12-11T04:57:24;5.60;78.30
71837;DHT22;59686;51.716;7.016;2022-12-11T04:59:49;5.60;78.20
71837;DHT22;59686;51.716;7.016;2022-12-11T05:02:16;5.50;78.30
71837;DHT22;59686;51.716;7.016;2022-12-11T05:04:41;5.60;78.20
71837;DHT22;59686;51.716;7.016;2022-12-11T05:07:07;5.60;78.20
71837;DHT22;59686;51.716;7.016;2022-12-11T05:09:34;5.60;78.20
71837;DHT22;59686;51.716;7.016;2022-12-11T05:12:00;5.60;78.20
71837;DHT22;59686;51.716;7.016;2022-12-11T05:14:26;5.50;78.30
71837;DHT22;59686;51.716;7.016;2022-12-11T05:16:59;5.50;78.30
71837;DHT22;59686;51.716;7.016;2022-12-11T05:19:25;5.60;78.30
71837;DHT22;59686;51.716;7.016;2022-12-11T05:21:51;5.60;78.30
71837;DHT22;59686;51.716;7.016;2022-12-11T05:24:17;5.70;78.40
71837;DHT22;59686;51.716;7.016;2022-12-11T05:26:43;5.60;78.30
71837;DHT22;59686;51.716;7.016;2022-12-11T05:29:09;5.60;78.30
71837;DHT22;59686;51.716;7.016;2022-12-11T05:31:49;5.60;78.40
71837;DHT22;59686;51.716;7.016;2022-12-11T05:34:14;5.60;78.40
71837;DHT22;59686;51.716;7.016;2022-12-11T05:36:40;5.50;78.30
71837;DHT22;59686;51.716;7.016;2022-12-11T05:39:06;5.60;78.40
71837;DHT22;59686;51.716;7.016;2022-12-11T05:41:31;5.60;78.30
71837;DHT22;59686;51.716;7.016;2022-12-11T05:44:02;5.60;78.40
71837;DHT22;59686;51.716;7.016;2022-12-11T05:46:29;5.60;78.40
71837;DHT22;59686;51.716;7.016;2022-12-11T05:48:57;5.50;78.40
71837;DHT22;59686;51.716;7.016;2022-12-11T05:51:24;5.60;78.40
71837;DHT22;59686;51.716;7.016;2022-12-11T05:53:51;5.50;78.40
71837;DHT22;59686;51.716;7.016;2022-12-11T05:56:20;5.50;78.40
71837;DHT22;59686;51.716;7.016;2022-12-11T05:58:51;5.70;78.60
71837;DHT22;59686;51.716;7.016;2022-12-11T06:03:57;5.60;78.50
71837;DHT22;59686;51.716;7.016;2022-12-11T06:06:24;5.60;78.50
71837;DHT22;59686;51.716;7.016;2022-12-11T06:08:51;5.60;78.50
71837;DHT22;59686;51.716;7.016;2022-12-11T06:11:18;5.50;78.40
71837;DHT22;59686;51.716;7.016;2022-12-11T06:13:43;5.60;78.50
71837;DHT22;59686;51.716;7.016;2022-12-11T06:16:09;5.60;78.50
71837;DHT22;59686;51.716;7.016;2022-12-11T06:18:37;5.60;78.60
71837;DHT22;59686;51.716;7.016;2022-12-11T06:21:21;5.60;78.50
71837;DHT22;59686;51.716;7.016;2022-12-11T06:23:49;5.60;78.50
71837;DHT22;59686;51.716;7.016;2022-12-11T06:26:16;5.60;78.50
71837;DHT22;59686;51.716;7.016;2022-12-11T06:28:42;5.60;78.60
71837;DHT22;59686;51.716;7.016;2022-12-11T06:31:08;5.60;78.60
71837;DHT22;59686;51.716;7.016;2022-12-11T06:33:33;5.60;78.60
71837;DHT22;59686;51.716;7.016;2022-12-11T06:36:08;5.50;78.40
71837;DHT22;59686;51.716;7.016;2022-12-11T06:38:34;5.60;78.60
71837;DHT22;59686;51.716;7.016;2022-12-11T06:41:01;5.60;78.60
71837;DHT22;59686;51.716;7.016;2022-12-11T06:43:35;5.60;78.60
71837;DHT22;59686;51.716;7.016;2022-12-11T06:46:14;5.60;78.60
71837;DHT22;59686;51.716;7.016;2022-12-11T06:48:40;5.60;78.60
71837;DHT22;59686;51.716;7.016;2022-12-11T06:51:15;5.60;78.60
71837;DHT22;59686;51.716;7.016;2022-12-11T06:53:41;5.60;78.60
71837;DHT22;59686;51.716;7.016;2022-12-11T06:56:12;5.60;78.60
71837;DHT22;59686;51.716;7.016;2022-12-11T06:58:39;5.60;78.60
71837;DHT22;59686;51.716;7.016;2022-12-11T07:01:14;5.60;78.60
71837;DHT22;59686;51.716;7.016;2022-12-11T07:03:40;5.60;78.60
71837;DHT22;59686;51.716;7.016;2022-12-11T07:06:06;5.60;78.60
71837;DHT22;59686;51.716;7.016;2022-12-11T07:08:31;5.60;78.60
71837;DHT22;59686;51.716;7.016;2022-12-11T07:11:02;5.60;78.60
71837;DHT22;59686;51.716;7.016;2022-12-11T07:13:31;5.60;78.60
71837;DHT22;59686;51.716;7.016;2022-12-11T07:15:59;5.60;78.60
71837;DHT22;59686;51.716;7.016;2022-12-11T07:18:27;5.60;78.60
71837;DHT22;59686;51.716;7.016;2022-12-11T07:20:53;5.60;78.70
71837;DHT22;59686;51.716;7.016;2022-12-11T07:23:19;5.60;78.70
71837;DHT22;59686;51.716;7.016;2022-12-11T07:25:44;5.60;78.60
71837;DHT22;59686;51.716;7.016;2022-12-11T07:28:10;5.60;78.80
71837;DHT22;59686;51.716;7.016;2022-12-11T07:30:37;5.60;78.70
71837;DHT22;59686;51.716;7.016;2022-12-11T07:33:03;5.60;78.60
71837;DHT22;59686;51.716;7.016;2022-12-11T07:35:29;5.60;78.60
71837;DHT22;59686;51.716;7.016;2022-12-11T07:37:54;5.60;78.70
71837;DHT22;59686;51.716;7.016;2022-12-11T07:40:20;5.60;78.70
71837;DHT22;59686;51.716;7.016;2022-12-11T07:42:46;5.60;78.70
71837;DHT22;59686;51.716;7.016;2022-12-11T07:45:11;5.70;78.90
71837;DHT22;59686;51.716;7.016;2022-12-11T07:47:46;5.60;78.70
71837;DHT22;59686;51.716;7.016;2022-12-11T07:50:12;5.60;78.80
71837;DHT22;59686;51.716;7.016;2022-12-11T07:52:37;5.60;78.70
71837;DHT22;59686;51.716;7.016;2022-12-11T07:55:04;5.60;78.80
71837;DHT22;59686;51.716;7.016;2022-12-11T07:57:29;5.60;78.70
71837;DHT22;59686;51.716;7.016;2022-12-11T07:59:55;5.60;78.80
71837;DHT22;59686;51.716;7.016;2022-12-11T08:02:21;5.60;78.80
71837;DHT22;59686;51.716;7.016;2022-12-11T08:04:46;5.60;78.70
71837;DHT22;59686;51.716;7.016;2022-12-11T08:07:12;5.60;78.70
71837;DHT22;59686;51.716;7.016;2022-12-11T08:09:38;5.60;78.80
71837;DHT22;59686;51.716;7.016;2022-12-11T08:12:11;5.60;78.80
71837;DHT22;59686;51.716;7.016;2022-12-11T08:14:37;5.60;78.80
71837;DHT22;59686;51.716;7.016;2022-12-11T08:17:03;5.60;78.80
71837;DHT22;59686;51.716;7.016;2022-12-11T08:19:29;5.60;78.70
71837;DHT22;59686;51.716;7.016;2022-12-11T08:21:58;5.60;78.80
71837;DHT22;59686;51.716;7.016;2022-12-11T08:24:24;5.60;78.80
71837;DHT22;59686;51.716;7.016;2022-12-11T08:26:50;5.60;78.90
71837;DHT22;59686;51.716;7.016;2022-12-11T08:29:15;5.60;78.80
71837;DHT22;59686;51.716;7.016;2022-12-11T08:31:44;5.60;78.80
71837;DHT22;59686;51.716;7.016;2022-12-11T08:34:10;5.70;78.90
71837;DHT22;59686;51.716;7.016;2022-12-11T08:36:38;5.60;78.90
71837;DHT22;59686;51.716;7.016;2022-12-11T08:39:04;5.40;79.20
71837;DHT22;59686;51.716;7.016;2022-12-11T08:41:30;5.10;79.10
71837;DHT22;59686;51.716;7.016;2022-12-11T08:43:57;5.00;79.50
71837;DHT22;59686;51.716;7.016;2022-12-11T08:46:28;4.90;80.10
71837;DHT22;59686;51.716;7.016;2022-12-11T08:48:55;4.90;81.00
71837;DHT22;59686;51.716;7.016;2022-12-11T08:51:23;4.80;81.10
71837;DHT22;59686;51.716;7.016;2022-12-11T08:53:49;4.70;82.30
71837;DHT22;59686;51.716;7.016;2022-12-11T08:56:18;4.90;81.30
71837;DHT22;59686;51.716;7.016;2022-12-11T08:58:45;5.00;80.80
71837;DHT22;59686;51.716;7.016;2022-12-11T09:01:12;5.10;80.40
71837;DHT22;59686;51.716;7.016;2022-12-11T09:03:39;5.20;80.10
71837;DHT22;59686;51.716;7.016;2022-12-11T09:06:06;5.30;79.90
71837;DHT22;59686;51.716;7.016;2022-12-11T09:08:32;5.30;79.70
71837;DHT22;59686;51.716;7.016;2022-12-11T09:11:10;5.30;79.60
71837;DHT22;59686;51.716;7.016;2022-12-11T09:13:36;5.40;79.70
71837;DHT22;59686;51.716;7.016;2022-12-11T09:16:08;5.40;79.60
71837;DHT22;59686;51.716;7.016;2022-12-11T09:18:37;5.40;79.50
71837;DHT22;59686;51.716;7.016;2022-12-11T09:21:09;5.50;79.60
71837;DHT22;59686;51.716;7.016;2022-12-11T09:23:35;5.40;79.40
71837;DHT22;59686;51.716;7.016;2022-12-11T09:26:05;5.40;79.40
71837;DHT22;59686;51.716;7.016;2022-12-11T09:28:39;5.40;79.40
71837;DHT22;59686;51.716;7.016;2022-12-11T09:31:09;5.40;79.30
71837;DHT22;59686;51.716;7.016;2022-12-11T09:33:36;5.40;79.20
71837;DHT22;59686;51.716;7.016;2022-12-11T09:36:02;5.60;79.20
71837;DHT22;59686;51.716;7.016;2022-12-11T09:38:28;5.50;79.10
71837;DHT22;59686;51.716;7.016;2022-12-11T09:40:55;5.50;79.10
71837;DHT22;59686;51.716;7.016;2022-12-11T09:43:49;5.50;79.10
71837;DHT22;59686;51.716;7.016;2022-12-11T09:46:18;5.60;79.10
71837;DHT22;59686;51.716;7.016;2022-12-11T09:48:47;5.50;79.10
71837;DHT22;59686;51.716;7.016;2022-12-11T09:54:02;5.50;79.00
71837;DHT22;59686;51.716;7.016;2022-12-11T09:56:32;5.50;79.00
71837;DHT22;59686;51.716;7.016;2022-12-11T09:59:22;5.50;79.10
71837;DHT22;59686;51.716;7.016;2022-12-11T10:02:02;5.50;79.00
71837;DHT22;59686;51.716;7.016;2022-12-11T10:10:43;5.50;78.90
71837;DHT22;59686;51.716;7.016;2022-12-11T10:13:39;5.50;79.00
71837;DHT22;59686;51.716;7.016;2022-12-11T10:16:40;5.50;78.90
71837;DHT22;59686;51.716;7.016;2022-12-11T10:19:30;5.50;78.90
71837;DHT22;59686;51.716;7.016;2022-12-11T10:21:57;5.50;79.60
71837;DHT22;59686;51.716;7.016;2022-12-11T10:27:17;5.50;78.90
71837;DHT22;59686;51.716;7.016;2022-12-11T10:29:45;5.50;78.90
71837;DHT22;59686;51.716;7.016;2022-12-11T10:38:25;5.50;78.90
71837;DHT22;59686;51.716;7.016;2022-12-11T10:41:38;5.50;78.90
71837;DHT22;59686;51.716;7.016;2022-12-11T10:44:25;5.50;78.90
71837;DHT22;59686;51.716;7.016;2022-12-11T10:47:11;5.50;78.80
71837;DHT22;59686;51.716;7.016;2022-12-11T10:49:42;5.50;78.70
71837;DHT22;59686;51.716;7.016;2022-12-11T10:52:19;5.50;78.80
71837;DHT22;59686;51.716;7.016;2022-12-11T10:54:46;5.50;78.80
71837;DHT22;59686;51.716;7.016;2022-12-11T10:57:29;5.60;78.80
71837;DHT22;59686;51.716;7.016;2022-12-11T10:59:57;5.50;78.70
71837;DHT22;59686;51.716;7.016;2022-12-11T11:02:31;5.50;78.80
71837;DHT22;59686;51.716;7.016;2022-12-11T11:05:27;5.50;78.80
71837;DHT22;59686;51.716;7.016;2022-12-11T11:08:17;5.60;78.80
71837;DHT22;59686;51.716;7.016;2022-12-11T11:10:54;5.60;78.80
71837;DHT22;59686;51.716;7.016;2022-12-11T11:13:25;5.60;78.70
71837;DHT22;59686;51.716;7.016;2022-12-11T11:16:06;5.60;78.70
71837;DHT22;59686;51.716;7.016;2022-12-11T11:18:34;5.60;78.70
71837;DHT22;59686;51.716;7.016;2022-12-11T11:21:00;5.60;78.60
71837;DHT22;59686;51.716;7.016;2022-12-11T11:23:27;5.60;78.60
71837;DHT22;59686;51.716;7.016;2022-12-11T11:26:01;5.60;78.60
71837;DHT22;59686;51.716;7.016;2022-12-11T11:28:48;5.60;78.60
71837;DHT22;59686;51.716;7.016;2022-12-11T11:31:16;5.60;78.50
71837;DHT22;59686;51.716;7.016;2022-12-11T11:34:00;5.60;78.50
71837;DHT22;59686;51.716;7.016;2022-12-11T11:36:31;5.60;78.60
71837;DHT22;59686;51.716;7.016;2022-12-11T11:41:50;5.60;78.60
71837;DHT22;59686;51.716;7.016;2022-12-11T11:44:36;5.60;78.50
71837;DHT22;59686;51.716;7.016;2022-12-11T11:47:15;5.60;78.60
71837;DHT22;59686;51.716;7.016;2022-12-11T11:50:05;5.60;78.40
71837;DHT22;59686;51.716;7.016;2022-12-11T11:55:53;5.60;78.30
71837;DHT22;59686;51.716;7.016;2022-12-11T11:58:33;5.60;78.30
71837;DHT22;59686;51.716;7.016;2022-12-11T12:01:02;5.60;78.40
71837;DHT22;59686;51.716;7.016;2022-12-11T12:03:28;5.60;78.30
71837;DHT22;59686;51.716;7.016;2022-12-11T12:06:09;5.60;78.20
71837;DHT22;59686;51.716;7.016;2022-12-11T12:09:16;5.60;78.30
71837;DHT22;59686;51.716;7.016;2022-12-11T12:12:13;5.60;78.50
71837;DHT22;59686;51.716;7.016;2022-12-11T12:23:24;5.60;78.20
71837;DHT22;59686;51.716;7.016;2022-12-11T12:26:10;5.60;78.10
71837;DHT22;59686;51.716;7.016;2022-12-11T12:40:29;5.60;78.20
71837;DHT22;59686;51.716;7.016;2022-12-11T12:48:41;5.60;77.90
71837;DHT22;59686;51.716;7.016;2022-12-11T12:51:10;5.60;78.00
71837;DHT22;59686;51.716;7.016;2022-12-11T12:53:38;5.60;78.10
71837;DHT22;59686;51.716;7.016;2022-12-11T12:56:05;5.60;78.00
71837;DHT22;59686;51.716;7.016;2022-12-11T13:01:16;5.50;78.00
71837;DHT22;59686;51.716;7.016;2022-12-11T13:04:22;5.60;77.90
71837;DHT22;59686;51.716;7.016;2022-12-11T13:06:51;5.60;78.00
71837;DHT22;59686;51.716;7.016;2022-12-11T13:09:25;5.70;78.00
71837;DHT22;59686;51.716;7.016;2022-12-11T13:11:55;5.60;78.00
71837;DHT22;59686;51.716;7.016;2022-12-11T13:16:52;5.60;78.10
71837;DHT22;59686;51.716;7.016;2022-12-11T13:19:29;5.60;78.10
71837;DHT22;59686;51.716;7.016;2022-12-11T13:24:31;5.60;78.20
71837;DHT22;59686;51.716;7.016;2022-12-11T13:27:26;5.60;78.20
71837;DHT22;59686;51.716;7.016;2022-12-11T13:30:24;5.70;78.30
71837;DHT22;59686;51.716;7.016;2022-12-11T13:33:13;5.60;78.20
71837;DHT22;59686;51.716;7.016;2022-12-11T13:35:40;5.60;78.00
71837;DHT22;59686;51.716;7.016;2022-12-11T13:38:17;5.50;77.90
71837;DHT22;59686;51.716;7.016;2022-12-11T13:40:51;5.40;78.80
71837;DHT22;59686;51.716;7.016;2022-12-11T13:43:29;5.30;78.70
71837;DHT22;59686;51.716;7.016;2022-12-11T13:46:08;5.20;79.30
71837;DHT22;59686;51.716;7.016;2022-12-11T13:49:01;5.10;79.40
71837;DHT22;59686;51.716;7.016;2022-12-11T13:51:29;5.10;79.60
71837;DHT22;59686;51.716;7.016;2022-12-11T13:54:04;5.10;79.40
71837;DHT22;59686;51.716;7.016;2022-12-11T13:56:30;5.00;79.20
71837;DHT22;59686;51.716;7.016;2022-12-11T13:58:56;5.00;79.40
71837;DHT22;59686;51.716;7.016;2022-12-11T14:01:24;5.00;80.00
71837;DHT22;59686;51.716;7.016;2022-12-11T14:04:07;5.00;80.00
71837;DHT22;59686;51.716;7.016;2022-12-11T14:06:35;5.00;80.00
71837;DHT22;59686;51.716;7.016;2022-12-11T14:09:03;4.90;80.20
71837;DHT22;59686;51.716;7.016;2022-12-11T14:11:33;4.90;80.20
71837;DHT22;59686;51.716;7.016;2022-12-11T14:14:02;4.90;80.90
71837;DHT22;59686;51.716;7.016;2022-12-11T14:16:29;4.90;80.20
71837;DHT22;59686;51.716;7.016;2022-12-11T14:19:02;4.90;81.10
71837;DHT22;59686;51.716;7.016;2022-12-11T14:21:29;4.80;80.00
71837;DHT22;59686;51.716;7.016;2022-12-11T14:23:57;4.80;80.20
71837;DHT22;59686;51.716;7.016;2022-12-11T14:26:28;4.80;80.00
71837;DHT22;59686;51.716;7.016;2022-12-11T14:28:54;4.80;79.80
71837;DHT22;59686;51.716;7.016;2022-12-11T14:31:35;4.80;80.30
71837;DHT22;59686;51.716;7.016;2022-12-11T14:34:14;4.90;80.10
71837;DHT22;59686;51.716;7.016;2022-12-11T14:36:42;5.00;79.80
71837;DHT22;59686;51.716;7.016;2022-12-11T14:39:19;5.10;79.50
71837;DHT22;59686;51.716;7.016;2022-12-11T14:47:37;5.30;79.20
71837;DHT22;59686;51.716;7.016;2022-12-11T14:50:26;5.30;79.10
71837;DHT22;59686;51.716;7.016;2022-12-11T14:53:19;5.30;79.00
71837;DHT22;59686;51.716;7.016;2022-12-11T14:55:52;5.40;79.00
71837;DHT22;59686;51.716;7.016;2022-12-11T14:58:19;5.40;79.10
71837;DHT22;59686;51.716;7.016;2022-12-11T15:01:05;5.40;79.10
71837;DHT22;59686;51.716;7.016;2022-12-11T15:03:44;5.40;79.00
71837;DHT22;59686;51.716;7.016;2022-12-11T15:06:29;5.40;79.70
71837;DHT22;59686;51.716;7.016;2022-12-11T15:08:55;5.40;79.00
71837;DHT22;59686;51.716;7.016;2022-12-11T15:11:21;5.40;78.90
71837;DHT22;59686;51.716;7.016;2022-12-11T15:14:03;5.40;78.90
71837;DHT22;59686;51.716;7.016;2022-12-11T15:16:32;5.50;79.00
71837;DHT22;59686;51.716;7.016;2022-12-11T15:19:01;5.50;79.00
71837;DHT22;59686;51.716;7.016;2022-12-11T15:21:31;5.50;79.00
71837;DHT22;59686;51.716;7.016;2022-12-11T15:24:01;5.50;79.00
71837;DHT22;59686;51.716;7.016;2022-12-11T15:26:45;5.50;79.00
71837;DHT22;59686;51.716;7.016;2022-12-11T15:40:18;5.50;79.00
71837;DHT22;59686;51.716;7.016;2022-12-11T15:42:44;5.50;79.70
71837;DHT22;59686;51.716;7.016;2022-12-11T15:45:17;5.50;78.90
71837;DHT22;59686;51.716;7.016;2022-12-11T15:47:44;5.50;79.00
71837;DHT22;59686;51.716;7.016;2022-12-11T15:52:44;5.50;79.00
71837;DHT22;59686;51.716;7.016;2022-12-11T15:55:13;5.50;79.00
71837;DHT22;59686;51.716;7.016;2022-12-11T15:57:42;5.60;79.10
71837;DHT22;59686;51.716;7.016;2022-12-11T16:00:13;5.50;79.00
71837;DHT22;59686;51.716;7.016;2022-12-11T16:02:39;5.50;79.00
71837;DHT22;59686;51.716;7.016;2022-12-11T16:05:05;5.60;79.10
71837;DHT22;59686;51.716;7.016;2022-12-11T16:07:30;5.60;79.10
71837;DHT22;59686;51.716;7.016;2022-12-11T16:09:57;5.60;79.10
71837;DHT22;59686;51.716;7.016;2022-12-11T16:12:22;5.60;79.10
71837;DHT22;59686;51.716;7.016;2022-12-11T16:14:48;5.60;79.10
71837;DHT22;59686;51.716;7.016;2022-12-11T16:17:14;5.60;79.10
71837;DHT22;59686;51.716;7.016;2022-12-11T16:19:41;5.50;78.90
71837;DHT22;59686;51.716;7.016;2022-12-11T16:22:08;5.60;79.10
71837;DHT22;59686;51.716;7.016;2022-12-11T16:24:34;5.60;79.10
71837;DHT22;59686;51.716;7.016;2022-12-11T16:27:01;5.60;79.10
71837;DHT22;59686;51.716;7.016;2022-12-11T16:29:37;5.60;79.10
71837;DHT22;59686;51.716;7.016;2022-12-11T16:32:03;5.60;79.10
71837;DHT22;59686;51.716;7.016;2022-12-11T16:34:31;5.50;79.00
71837;DHT22;59686;51.716;7.016;2022-12-11T16:36:58;5.60;79.10
71837;DHT22;59686;51.716;7.016;2022-12-11T16:39:25;5.60;79.20
71837;DHT22;59686;51.716;7.016;2022-12-11T16:41:50;5.60;79.20
71837;DHT22;59686;51.716;7.016;2022-12-11T16:44:20;5.60;79.20
71837;DHT22;59686;51.716;7.016;2022-12-11T16:46:47;5.60;79.90
71837;DHT22;59686;51.716;7.016;2022-12-11T16:49:12;5.60;79.20
71837;DHT22;59686;51.716;7.016;2022-12-11T16:51:39;5.70;79.20
71837;DHT22;59686;51.716;7.016;2022-12-11T16:54:04;5.50;79.00
71837;DHT22;59686;51.716;7.016;2022-12-11T16:56:30;5.60;79.10
71837;DHT22;59686;51.716;7.016;2022-12-11T16:58:56;5.60;79.10
71837;DHT22;59686;51.716;7.016;2022-12-11T17:01:21;5.60;79.20
71837;DHT22;59686;51.716;7.016;2022-12-11T17:03:47;5.60;79.20
71837;DHT22;59686;51.716;7.016;2022-12-11T17:06:15;5.60;79.20
71837;DHT22;59686;51.716;7.016;2022-12-11T17:08:42;5.50;79.10
71837;DHT22;59686;51.716;7.016;2022-12-11T17:11:10;5.60;79.20
71837;DHT22;59686;51.716;7.016;2022-12-11T17:13:36;5.60;79.10
71837;DHT22;59686;51.716;7.016;2022-12-11T17:16:13;5.60;79.10
71837;DHT22;59686;51.716;7.016;2022-12-11T17:18:43;5.60;79.10
71837;DHT22;59686;51.716;7.016;2022-12-11T17:21:14;5.60;79.20
71837;DHT22;59686;51.716;7.016;2022-12-11T17:23:40;5.60;79.20
71837;DHT22;59686;51.716;7.016;2022-12-11T17:26:06;5.60;79.20
71837;DHT22;59686;51.716;7.016;2022-12-11T17:28:36;5.60;79.20
71837;DHT22;59686;51.716;7.016;2022-12-11T17:31:07;5.60;79.10
71837;DHT22;59686;51.716;7.016;2022-12-11T17:33:33;5.50;77.40
71837;DHT22;59686;51.716;7.016;2022-12-11T17:36:05;5.30;78.60
71837;DHT22;59686;51.716;7.016;2022-12-11T17:38:31;5.30;79.00
71837;DHT22;59686;51.716;7.016;2022-12-11T17:40:57;5.40;79.00
71837;DHT22;59686;51.716;7.016;2022-12-11T17:43:23;5.60;79.00
71837;DHT22;59686;51.716;7.016;2022-12-11T17:45:50;5.50;78.90
71837;DHT22;59686;51.716;7.016;2022-12-11T17:48:20;5.50;78.90
71837;DHT22;59686;51.716;7.016;2022-12-11T17:50:47;5.50;78.90
71837;DHT22;59686;51.716;7.016;2022-12-11T17:53:15;5.50;78.90